sensor_id;sensor_type;location;lat;lon;timestamp;pressure;altitude;pressure_sealevel;temperature;humidity
1776;BME280;885;42.626;23.200;2022-11-23T00:02:09;167152.75;;;7.38;100.00
1776;BME280;885;42.626;23.200;2022-11-23T00:04:36;167121.13;;;7.27;100.00
1776;BME280;885;42.626;23.200;2022-11-23T00:07:03;167130.75;;;7.30;100.00
1776;BME280;885;42.626;23.200;2022-11-23T00:09:29;167158.25;;;7.40;100.00
1776;BME280;885;42.626;23.200;2022-11-23T00:11:58;167163.75;;;7.42;100.00
1776;BME280;885;42.626;23.200;2022-11-23T00:14:24;167178.91;;;7.48;100.00
1776;BME280;885;42.626;23.200;2022-11-23T00:16:51;167173.34;;;7.46;100.00
1776;BME280;885;42.626;23.200;2022-11-23T00:19:18;167169.25;;;7.44;100.00
1776;BME280;885;42.626;23.200;2022-11-23T00:21:45;167180.25;;;7.48;100.00
1776;BME280;885;42.626;23.200;2022-11-23T00:24:12;167188.53;;;7.51;100.00
1776;BME280;885;42.626;23.200;2022-11-23T00:26:38;167180.25;;;7.48;100.00
1776;BME280;885;42.626;23.200;2022-11-23T00:29:07;167177.53;;;7.47;100.00
1776;BME280;885;42.626;23.200;2022-11-23T00:31:34;167177.53;;;7.47;100.00
1776;BME280;885;42.626;23.200;2022-11-23T00:34:01;167183.03;;;7.49;100.00
1776;BME280;885;42.626;23.200;2022-11-23T00:36:28;167170.63;;;7.45;100.00
1776;BME280;885;42.626;23.200;2022-11-23T00:38:55;167176.13;;;7.47;100.00
1776;BME280;885;42.626;23.200;2022-11-23T00:41:24;167172.03;;;7.45;100.00
1776;BME280;885;42.626;23.200;2022-11-23T00:43:51;167174.75;;;7.46;100.00
1776;BME280;885;42.626;23.200;2022-11-23T00:46:22;167191.25;;;7.52;100.00
1776;BME280;885;42.626;23.200;2022-11-23T00:48:50;167185.75;;;7.50;100.00
1776;BME280;885;42.626;23.200;2022-11-23T00:51:20;167033.06;;;6.94;100.00
1776;BME280;885;42.626;23.200;2022-11-23T00:53:48;167086.72;;;7.14;100.00
1776;BME280;885;42.626;23.200;2022-11-23T00:56:15;167100.47;;;7.19;100.00
1776;BME280;885;42.626;23.200;2022-11-23T00:58:46;167064.69;;;7.06;100.00
1776;BME280;885;42.626;23.200;2022-11-23T01:01:14;167086.72;;;7.14;100.00
1776;BME280;885;42.626;23.200;2022-11-23T01:03:45;167089.44;;;7.15;100.00
1776;BME280;885;42.626;23.200;2022-11-23T01:06:14;167096.34;;;7.17;100.00
1776;BME280;885;42.626;23.200;2022-11-23T01:08:42;167110.13;;;7.22;100.00
1776;BME280;885;42.626;23.200;2022-11-23T01:11:10;167116.97;;;7.25;100.00
1776;BME280;885;42.626;23.200;2022-11-23T01:13:39;167093.56;;;7.16;100.00
1776;BME280;885;42.626;23.200;2022-11-23T01:16:08;167070.19;;;7.08;100.00
1776;BME280;885;42.626;23.200;2022-11-23T01:18:35;167094.97;;;7.17;100.00
1776;BME280;885;42.626;23.200;2022-11-23T01:21:04;167085.34;;;7.13;100.00
1776;BME280;885;42.626;23.200;2022-11-23T01:23:31;167099.06;;;7.18;100.00
1776;BME280;885;42.626;23.200;2022-11-23T01:26:03;167129.34;;;7.30;100.00
1776;BME280;885;42.626;23.200;2022-11-23T01:28:30;167155.53;;;7.39;100.00
1776;BME280;885;42.626;23.200;2022-11-23T01:31:02;167183.03;;;7.49;100.00
1776;BME280;885;42.626;23.200;2022-11-23T01:33:30;167206.41;;;7.58;100.00
1776;BME280;885;42.626;23.200;2022-11-23T01:35:57;167200.91;;;7.56;100.00
1776;BME280;885;42.626;23.200;2022-11-23T01:38:25;167216.03;;;7.61;100.00
1776;BME280;885;42.626;23.200;2022-11-23T01:40:52;167194.03;;;7.53;100.00
1776;BME280;885;42.626;23.200;2022-11-23T01:43:18;167097.72;;;7.18;100.00
1776;BME280;885;42.626;23.200;2022-11-23T01:45:55;167088.06;;;7.14;100.00
1776;BME280;885;42.626;23.200;2022-11-23T01:48:26;167035.78;;;6.95;100.00
1776;BME280;885;42.626;23.200;2022-11-23T01:50:55;167056.44;;;7.03;100.00
1776;BME280;885;42.626;23.200;2022-11-23T01:53:26;167037.19;;;6.96;100.00
1776;BME280;885;42.626;23.200;2022-11-23T01:55:56;167094.97;;;7.17;100.00
1776;BME280;885;42.626;23.200;2022-11-23T01:58:26;167110.13;;;7.22;100.00
1776;BME280;885;42.626;23.200;2022-11-23T02:00:54;167133.47;;;7.31;100.00
1776;BME280;885;42.626;23.200;2022-11-23T02:03:22;167144.50;;;7.35;100.00
1776;BME280;885;42.626;23.200;2022-11-23T02:05:52;167172.03;;;7.45;100.00
1776;BME280;885;42.626;23.200;2022-11-23T02:08:25;167085.34;;;7.13;100.00
1776;BME280;885;42.626;23.200;2022-11-23T02:10:53;167086.72;;;7.14;100.00
1776;BME280;885;42.626;23.200;2022-11-23T02:13:21;167092.22;;;7.16;100.00
1776;BME280;885;42.626;23.200;2022-11-23T02:15:49;167111.47;;;7.23;100.00
1776;BME280;885;42.626;23.200;2022-11-23T02:18:25;167089.44;;;7.15;100.00
1776;BME280;885;42.626;23.200;2022-11-23T02:20:53;167097.72;;;7.18;100.00
1776;BME280;885;42.626;23.200;2022-11-23T02:23:29;167133.47;;;7.31;100.00
1776;BME280;885;42.626;23.200;2022-11-23T02:26:01;167162.34;;;7.42;100.00
1776;BME280;885;42.626;23.200;2022-11-23T02:28:33;167152.75;;;7.38;100.00
1776;BME280;885;42.626;23.200;2022-11-23T02:31:02;167143.13;;;7.35;100.00
1776;BME280;885;42.626;23.200;2022-11-23T02:33:29;167126.63;;;7.29;100.00
1776;BME280;885;42.626;23.200;2022-11-23T02:35:58;167061.94;;;7.05;100.00
1776;BME280;885;42.626;23.200;2022-11-23T02:38:29;167074.34;;;7.09;100.00
1776;BME280;885;42.626;23.200;2022-11-23T02:40:57;167100.47;;;7.19;100.00
1776;BME280;885;42.626;23.200;2022-11-23T02:43:25;167099.06;;;7.18;100.00
1776;BME280;885;42.626;23.200;2022-11-23T02:45:55;167009.69;;;6.86;100.00
1776;BME280;885;42.626;23.200;2022-11-23T02:48:23;167028.97;;;6.93;100.00
1776;BME280;885;42.626;23.200;2022-11-23T02:50:50;167045.47;;;6.99;100.00
1776;BME280;885;42.626;23.200;2022-11-23T02:53:17;167009.69;;;6.86;100.00
1776;BME280;885;42.626;23.200;2022-11-23T02:55:44;167039.97;;;6.97;100.00
1776;BME280;885;42.626;23.200;2022-11-23T02:58:11;167049.56;;;7.00;100.00
1776;BME280;885;42.626;23.200;2022-11-23T03:00:40;167053.69;;;7.02;100.00
1776;BME280;885;42.626;23.200;2022-11-23T03:03:06;167046.84;;;6.99;100.00
1776;BME280;885;42.626;23.200;2022-11-23T03:05:33;167049.56;;;7.00;100.00
1776;BME280;885;42.626;23.200;2022-11-23T03:08:00;167052.34;;;7.01;100.00
1776;BME280;885;42.626;23.200;2022-11-23T03:10:27;167023.47;;;6.91;100.00
1776;BME280;885;42.626;23.200;2022-11-23T03:12:54;166993.19;;;6.80;100.00
1776;BME280;885;42.626;23.200;2022-11-23T03:15:22;166987.69;;;6.78;100.00
1776;BME280;885;42.626;23.200;2022-11-23T03:17:50;166954.69;;;6.66;100.00
1776;BME280;885;42.626;23.200;2022-11-23T03:20:17;166902.44;;;6.47;100.00
1776;BME280;885;42.626;23.200;2022-11-23T03:22:44;166899.69;;;6.46;100.00
1776;BME280;885;42.626;23.200;2022-11-23T03:25:11;166872.19;;;6.35;100.00
1776;BME280;885;42.626;23.200;2022-11-23T03:27:38;166884.56;;;6.40;100.00
1776;BME280;885;42.626;23.200;2022-11-23T03:30:06;166881.78;;;6.39;100.00
1776;BME280;885;42.626;23.200;2022-11-23T03:32:34;166946.44;;;6.63;100.00
1776;BME280;885;42.626;23.200;2022-11-23T03:35:02;166984.91;;;6.77;100.00
1776;BME280;885;42.626;23.200;2022-11-23T03:37:30;166947.81;;;6.63;100.00
1776;BME280;885;42.626;23.200;2022-11-23T03:39:56;166979.41;;;6.75;100.00
1776;BME280;885;42.626;23.200;2022-11-23T03:42:23;166990.41;;;6.79;100.00
1776;BME280;885;42.626;23.200;2022-11-23T03:44:50;167096.34;;;7.17;100.00
1776;BME280;885;42.626;23.200;2022-11-23T03:47:17;167284.84;;;7.86;100.00
1776;BME280;885;42.626;23.200;2022-11-23T03:49:44;167479.00;;;8.57;100.00
1776;BME280;885;42.626;23.200;2022-11-23T03:52:12;167518.94;;;8.72;100.00
1776;BME280;885;42.626;23.200;2022-11-23T03:54:39;167594.72;;;9.00;100.00
1776;BME280;885;42.626;23.200;2022-11-23T03:57:06;167611.22;;;9.06;100.00
1776;BME280;885;42.626;23.200;2022-11-23T03:59:33;167652.56;;;9.21;100.00
1776;BME280;885;42.626;23.200;2022-11-23T04:01:59;167629.16;;;9.12;100.00
1776;BME280;885;42.626;23.200;2022-11-23T04:04:26;167645.69;;;9.18;100.00
1776;BME280;885;42.626;23.200;2022-11-23T04:06:53;167615.34;;;9.07;100.00
1776;BME280;885;42.626;23.200;2022-11-23T04:09:21;167619.53;;;9.09;100.00
1776;BME280;885;42.626;23.200;2022-11-23T04:11:48;167633.25;;;9.14;100.00
1776;BME280;885;42.626;23.200;2022-11-23T04:14:15;167611.22;;;9.06;100.00
1776;BME280;885;42.626;23.200;2022-11-23T04:16:42;167620.84;;;9.09;100.00
1776;BME280;885;42.626;23.200;2022-11-23T04:19:09;167649.78;;;9.20;100.00
1776;BME280;885;42.626;23.200;2022-11-23T04:21:36;167619.53;;;9.09;100.00
1776;BME280;885;42.626;23.200;2022-11-23T04:24:03;167629.16;;;9.12;100.00
1776;BME280;885;42.626;23.200;2022-11-23T04:26:31;167651.19;;;9.20;100.00
1776;BME280;885;42.626;23.200;2022-11-23T04:28:58;167670.50;;;9.27;100.00
1776;BME280;885;42.626;23.200;2022-11-23T04:31:25;167642.94;;;9.17;100.00
1776;BME280;885;42.626;23.200;2022-11-23T04:33:53;167655.31;;;9.22;100.00
1776;BME280;885;42.626;23.200;2022-11-23T04:36:20;167664.97;;;9.25;100.00
1776;BME280;885;42.626;23.200;2022-11-23T04:38:47;167662.19;;;9.24;100.00
1776;BME280;885;42.626;23.200;2022-11-23T04:41:14;167642.94;;;9.17;100.00
1776;BME280;885;42.626;23.200;2022-11-23T04:43:42;167633.25;;;9.14;100.00
1776;BME280;885;42.626;23.200;2022-11-23T04:46:10;167664.97;;;9.25;100.00
1776;BME280;885;42.626;23.200;2022-11-23T04:48:37;167666.31;;;9.26;100.00
1776;BME280;885;42.626;23.200;2022-11-23T04:51:04;167674.63;;;9.29;100.00
1776;BME280;885;42.626;23.200;2022-11-23T04:53:31;167626.38;;;9.11;100.00
1776;BME280;885;42.626;23.200;2022-11-23T04:55:58;167631.88;;;9.13;100.00
1776;BME280;885;42.626;23.200;2022-11-23T04:58:25;167619.53;;;9.09;100.00
1776;BME280;885;42.626;23.200;2022-11-23T05:00:53;167637.44;;;9.15;100.00
1776;BME280;885;42.626;23.200;2022-11-23T05:03:20;167671.88;;;9.28;100.00
1776;BME280;885;42.626;23.200;2022-11-23T05:05:46;167664.97;;;9.25;100.00
1776;BME280;885;42.626;23.200;2022-11-23T05:08:13;167680.13;;;9.31;100.00
1776;BME280;885;42.626;23.200;2022-11-23T05:10:40;167677.41;;;9.30;100.00
1776;BME280;885;42.626;23.200;2022-11-23T05:13:07;167702.16;;;9.39;100.00
1776;BME280;885;42.626;23.200;2022-11-23T05:15:34;167684.25;;;9.32;100.00
1776;BME280;885;42.626;23.200;2022-11-23T05:18:03;167692.53;;;9.35;100.00
1776;BME280;885;42.626;23.200;2022-11-23T05:20:30;167695.25;;;9.36;100.00
1776;BME280;885;42.626;23.200;2022-11-23T05:22:58;167674.63;;;9.29;100.00
1776;BME280;885;42.626;23.200;2022-11-23T05:25:26;167651.19;;;9.20;100.00
1776;BME280;885;42.626;23.200;2022-11-23T05:27:52;167652.56;;;9.21;100.00
1776;BME280;885;42.626;23.200;2022-11-23T05:30:19;167669.09;;;9.27;100.00
1776;BME280;885;42.626;23.200;2022-11-23T05:32:46;167676.00;;;9.29;100.00
1776;BME280;885;42.626;23.200;2022-11-23T05:35:14;167651.19;;;9.20;100.00
1776;BME280;885;42.626;23.200;2022-11-23T05:37:41;167653.97;;;9.21;100.00
1776;BME280;885;42.626;23.200;2022-11-23T05:40:09;167638.78;;;9.16;100.00
1776;BME280;885;42.626;23.200;2022-11-23T05:42:36;167634.66;;;9.14;100.00
1776;BME280;885;42.626;23.200;2022-11-23T05:45:04;167645.69;;;9.18;100.00
1776;BME280;885;42.626;23.200;2022-11-23T05:47:31;167662.19;;;9.24;100.00
1776;BME280;885;42.626;23.200;2022-11-23T05:49:58;167647.06;;;9.19;100.00
1776;BME280;885;42.626;23.200;2022-11-23T05:52:26;167680.13;;;9.31;100.00
1776;BME280;885;42.626;23.200;2022-11-23T05:54:53;167671.88;;;9.28;100.00
1776;BME280;885;42.626;23.200;2022-11-23T05:57:20;167687.03;;;9.33;100.00
1776;BME280;885;42.626;23.200;2022-11-23T05:59:47;167670.50;;;9.27;100.00
1776;BME280;885;42.626;23.200;2022-11-23T06:02:14;167689.75;;;9.34;100.00
1776;BME280;885;42.626;23.200;2022-11-23T06:04:41;167685.63;;;9.33;100.00
1776;BME280;885;42.626;23.200;2022-11-23T06:07:08;167742.13;;;9.53;100.00
1776;BME280;885;42.626;23.200;2022-11-23T06:09:36;167747.63;;;9.55;100.00
1776;BME280;885;42.626;23.200;2022-11-23T06:12:03;167731.09;;;9.49;100.00
1776;BME280;885;42.626;23.200;2022-11-23T06:14:30;167755.91;;;9.58;100.00
1776;BME280;885;42.626;23.200;2022-11-23T06:16:57;167693.91;;;9.36;100.00
1776;BME280;885;42.626;23.200;2022-11-23T06:19:24;167731.09;;;9.49;100.00
1776;BME280;885;42.626;23.200;2022-11-23T06:21:51;167755.91;;;9.58;100.00
1776;BME280;885;42.626;23.200;2022-11-23T06:24:17;167798.63;;;9.74;100.00
1776;BME280;885;42.626;23.200;2022-11-23T06:26:46;167786.25;;;9.70;100.00
1776;BME280;885;42.626;23.200;2022-11-23T06:29:13;167791.78;;;9.72;100.00
1776;BME280;885;42.626;23.200;2022-11-23T06:31:40;167812.41;;;9.79;100.00
1776;BME280;885;42.626;23.200;2022-11-23T06:34:07;167762.81;;;9.61;100.00
1776;BME280;885;42.626;23.200;2022-11-23T06:36:33;167813.81;;;9.80;100.00
1776;BME280;885;42.626;23.200;2022-11-23T06:39:00;167800.00;;;9.75;100.00
1776;BME280;885;42.626;23.200;2022-11-23T06:41:27;167808.31;;;9.78;100.00
1776;BME280;885;42.626;23.200;2022-11-23T06:43:55;167771.06;;;9.64;100.00
1776;BME280;885;42.626;23.200;2022-11-23T06:46:22;167794.50;;;9.73;100.00
1776;BME280;885;42.626;23.200;2022-11-23T06:48:49;167826.22;;;9.84;100.00
1776;BME280;885;42.626;23.200;2022-11-23T06:51:16;167749.03;;;9.56;100.00
1776;BME280;885;42.626;23.200;2022-11-23T06:53:43;167833.06;;;9.87;100.00
1776;BME280;885;42.626;23.200;2022-11-23T06:56:10;167868.94;;;10.00;100.00
1776;BME280;885;42.626;23.200;2022-11-23T06:58:36;167885.47;;;10.06;100.00
1776;BME280;885;42.626;23.200;2022-11-23T07:01:07;167917.25;;;10.17;100.00
1776;BME280;885;42.626;23.200;2022-11-23T07:03:34;167968.28;;;10.36;100.00
1776;BME280;885;42.626;23.200;2022-11-23T07:06:03;167935.19;;;10.24;100.00
1776;BME280;885;42.626;23.200;2022-11-23T07:08:30;167951.75;;;10.30;100.00
1776;BME280;885;42.626;23.200;2022-11-23T07:10:59;167911.75;;;10.15;100.00
1776;BME280;885;42.626;23.200;2022-11-23T07:13:26;167910.34;;;10.15;100.00
1776;BME280;885;42.626;23.200;2022-11-23T07:15:54;167896.50;;;10.10;100.00
1776;BME280;885;42.626;23.200;2022-11-23T07:18:24;167946.22;;;10.28;100.00
1776;BME280;885;42.626;23.200;2022-11-23T07:20:50;167889.66;;;10.07;100.00
1776;BME280;885;42.626;23.200;2022-11-23T07:23:17;167940.72;;;10.26;100.00
1776;BME280;885;42.626;23.200;2022-11-23T07:25:44;167877.22;;;10.03;100.00
1776;BME280;885;42.626;23.200;2022-11-23T07:28:12;167922.78;;;10.19;100.00
1776;BME280;885;42.626;23.200;2022-11-23T07:30:39;167888.25;;;10.07;100.00
1776;BME280;885;42.626;23.200;2022-11-23T07:33:07;167886.88;;;10.06;100.00
1776;BME280;885;42.626;23.200;2022-11-23T07:35:37;167877.22;;;10.03;100.00
1776;BME280;885;42.626;23.200;2022-11-23T07:38:04;167911.75;;;10.15;100.00
1776;BME280;885;42.626;23.200;2022-11-23T07:40:32;167895.16;;;10.09;100.00
1776;BME280;885;42.626;23.200;2022-11-23T07:43:02;167879.97;;;10.04;100.00
1776;BME280;885;42.626;23.200;2022-11-23T07:45:29;167890.97;;;10.08;100.00
1776;BME280;885;42.626;23.200;2022-11-23T07:47:57;167868.94;;;10.00;100.00
1776;BME280;885;42.626;23.200;2022-11-23T07:50:24;167879.97;;;10.04;99.44
1776;BME280;885;42.626;23.200;2022-11-23T07:52:52;167879.97;;;10.04;100.00
1776;BME280;885;42.626;23.200;2022-11-23T07:55:19;167968.28;;;10.36;96.75
1776;BME280;885;42.626;23.200;2022-11-23T07:57:46;168020.69;;;10.55;93.93
1776;BME280;885;42.626;23.200;2022-11-23T08:00:14;168042.75;;;10.63;93.48
1776;BME280;885;42.626;23.200;2022-11-23T08:02:41;168144.69;;;11.01;90.69
1776;BME280;885;42.626;23.200;2022-11-23T08:05:08;167817.31;;;11.17;86.53
1776;BME280;885;42.626;23.200;2022-11-23T08:07:35;166960.69;;;10.76;87.50
1776;BME280;885;42.626;23.200;2022-11-23T08:10:04;166930.53;;;10.65;88.42
1776;BME280;885;42.626;23.200;2022-11-23T08:12:31;167020.94;;;10.98;88.88
1776;BME280;885;42.626;23.200;2022-11-23T08:14:58;167262.25;;;11.86;84.78
1776;BME280;885;42.626;23.200;2022-11-23T08:17:24;166446.22;;;11.60;85.28
1776;BME280;885;42.626;23.200;2022-11-23T08:19:51;166021.50;;;11.40;86.37
1776;BME280;885;42.626;23.200;2022-11-23T08:22:18;165870.50;;;10.84;89.32
1776;BME280;885;42.626;23.200;2022-11-23T08:24:45;166233.41;;;10.81;91.24
1776;BME280;885;42.626;23.200;2022-11-23T08:27:13;166801.47;;;11.54;90.49
1776;BME280;885;42.626;23.200;2022-11-23T08:29:40;166976.59;;;12.18;87.15
1776;BME280;885;42.626;23.200;2022-11-23T08:32:07;166605.97;;;12.19;85.87
1776;BME280;885;42.626;23.200;2022-11-23T08:34:34;166566.38;;;12.04;87.61
1776;BME280;885;42.626;23.200;2022-11-23T08:37:00;166603.19;;;12.18;88.21
1776;BME280;885;42.626;23.200;2022-11-23T08:39:27;166229.84;;;12.17;86.15
1776;BME280;885;42.626;23.200;2022-11-23T08:41:54;166218.97;;;12.13;86.23
1776;BME280;885;42.626;23.200;2022-11-23T08:44:22;165727.50;;;11.69;88.61
1776;BME280;885;42.626;23.200;2022-11-23T08:46:49;165347.75;;;11.66;87.92
1776;BME280;885;42.626;23.200;2022-11-23T08:49:16;165798.16;;;11.95;87.01
1776;BME280;885;42.626;23.200;2022-11-23T08:51:43;165342.34;;;11.64;87.54
1776;BME280;885;42.626;23.200;2022-11-23T08:54:10;164973.47;;;11.65;87.63
1776;BME280;885;42.626;23.200;2022-11-23T08:56:37;165355.91;;;11.69;88.49
1776;BME280;885;42.626;23.200;2022-11-23T08:59:04;165358.66;;;11.70;88.87
1776;BME280;885;42.626;23.200;2022-11-23T09:01:32;165342.34;;;11.64;89.99
1776;BME280;885;42.626;23.200;2022-11-23T09:03:59;165324.72;;;11.57;89.89
1776;BME280;885;42.626;23.200;2022-11-23T09:06:26;165323.34;;;11.57;91.25
1776;BME280;885;42.626;23.200;2022-11-23T09:08:53;165278.66;;;11.40;92.27
1776;BME280;885;42.626;23.200;2022-11-23T09:11:20;165664.97;;;11.46;93.20
1776;BME280;885;42.626;23.200;2022-11-23T09:13:47;165722.06;;;11.67;91.96
1776;BME280;885;42.626;23.200;2022-11-23T09:16:14;166246.19;;;12.23;90.70
1776;BME280;885;42.626;23.200;2022-11-23T09:18:44;165898.69;;;12.32;87.52
1776;BME280;885;42.626;23.200;2022-11-23T09:21:11;165514.47;;;12.28;87.63
1776;BME280;885;42.626;23.200;2022-11-23T09:23:38;165077.66;;;12.04;86.15
1776;BME280;885;42.626;23.200;2022-11-23T09:26:05;164712.66;;;12.06;85.33
1776;BME280;885;42.626;23.200;2022-11-23T09:28:32;164727.50;;;12.12;85.34
1776;BME280;885;42.626;23.200;2022-11-23T09:31:04;164801.72;;;12.39;85.17
1776;BME280;885;42.626;23.200;2022-11-23T09:33:31;164056.50;;;12.39;81.35
1776;BME280;885;42.626;23.200;2022-11-23T09:36:00;163691.34;;;12.41;80.97
1776;BME280;885;42.626;23.200;2022-11-23T09:38:27;163287.41;;;12.29;81.28
1776;BME280;885;42.626;23.200;2022-11-23T09:41:01;164190.84;;;12.89;81.87
1776;BME280;885;42.626;23.200;2022-11-23T09:43:45;163849.44;;;13.01;79.70
1776;BME280;885;42.626;23.200;2022-11-23T09:46:21;163430.44;;;12.83;78.66
1776;BME280;885;42.626;23.200;2022-11-23T09:49:11;163533.44;;;13.22;78.73
1776;BME280;885;42.626;23.200;2022-11-23T09:51:41;162379.38;;;13.08;75.71
1776;BME280;885;42.626;23.200;2022-11-23T09:54:18;162386.03;;;13.10;77.74
1776;BME280;885;42.626;23.200;2022-11-23T09:56:48;162387.38;;;13.11;77.43
1776;BME280;885;42.626;23.200;2022-11-23T09:59:24;162070.88;;;13.32;74.45
1776;BME280;885;42.626;23.200;2022-11-23T10:01:53;161347.47;;;13.40;74.14
1776;BME280;885;42.626;23.200;2022-11-23T10:04:20;161369.91;;;13.48;74.29
1776;BME280;885;42.626;23.200;2022-11-23T10:06:55;161069.94;;;13.76;71.00
1776;BME280;885;42.626;23.200;2022-11-23T10:09:32;161545.34;;;14.15;71.92
1776;BME280;885;42.626;23.200;2022-11-23T10:12:17;161723.53;;;14.83;69.75
1776;BME280;885;42.626;23.200;2022-11-23T10:14:59;160686.78;;;15.15;66.62
1776;BME280;885;42.626;23.200;2022-11-23T10:17:52;159640.09;;;15.43;65.27
1776;BME280;885;42.626;23.200;2022-11-23T10:20:41;158858.44;;;15.30;66.04
1776;BME280;885;42.626;23.200;2022-11-23T10:23:16;158697.31;;;16.12;61.44
1776;BME280;885;42.626;23.200;2022-11-23T10:25:47;157600.81;;;16.22;61.08
1776;BME280;885;42.626;23.200;2022-11-23T10:28:16;156105.28;;;16.21;60.82
1776;BME280;885;42.626;23.200;2022-11-23T10:30:46;157119.41;;;17.26;58.80
1776;BME280;885;42.626;23.200;2022-11-23T10:33:20;156547.91;;;17.96;55.48
1776;BME280;885;42.626;23.200;2022-11-23T10:35:48;153496.13;;;17.74;53.09
1776;BME280;885;42.626;23.200;2022-11-23T10:38:18;152160.13;;;18.39;50.29
1776;BME280;885;42.626;23.200;2022-11-23T10:40:56;148569.44;;;17.46;52.92
1776;BME280;885;42.626;23.200;2022-11-23T10:43:28;149520.34;;;18.31;51.78
1776;BME280;885;42.626;23.200;2022-11-23T10:46:21;148729.88;;;18.13;53.48
1776;BME280;885;42.626;23.200;2022-11-23T10:48:50;149374.94;;;19.26;49.44
1776;BME280;885;42.626;23.200;2022-11-23T10:51:22;147025.88;;;18.83;50.17
1776;BME280;885;42.626;23.200;2022-11-23T10:53:56;145058.56;;;18.42;51.39
1776;BME280;885;42.626;23.200;2022-11-23T10:56:25;144654.28;;;18.29;52.67
1776;BME280;885;42.626;23.200;2022-11-23T10:58:52;139813.88;;;16.70;56.03
1776;BME280;885;42.626;23.200;2022-11-23T11:01:20;138976.91;;;16.29;58.06
1776;BME280;885;42.626;23.200;2022-11-23T11:03:49;144623.81;;;18.16;54.42
1776;BME280;885;42.626;23.200;2022-11-23T11:06:21;138182.59;;;16.06;59.62
1776;BME280;885;42.626;23.200;2022-11-23T11:08:50;137691.31;;;15.52;63.37
1776;BME280;885;42.626;23.200;2022-11-23T11:11:24;134910.56;;;14.69;65.07
1776;BME280;885;42.626;23.200;2022-11-23T11:14:01;135948.81;;;14.35;69.51
1776;BME280;885;42.626;23.200;2022-11-23T11:16:30;137326.63;;;15.55;61.50
1776;BME280;885;42.626;23.200;2022-11-23T11:18:57;136144.09;;;15.24;61.99
1776;BME280;885;42.626;23.200;2022-11-23T11:21:30;133361.13;;;14.38;64.43
1776;BME280;885;42.626;23.200;2022-11-23T11:24:00;134839.50;;;14.36;67.42
1776;BME280;885;42.626;23.200;2022-11-23T11:26:30;148136.84;;;18.78;57.99
1776;BME280;885;42.626;23.200;2022-11-23T11:29:00;147696.50;;;20.08;48.07
1776;BME280;885;42.626;23.200;2022-11-23T11:31:45;142607.53;;;19.14;47.57
1776;BME280;885;42.626;23.200;2022-11-23T11:34:18;147964.41;;;21.21;45.13
1776;BME280;885;42.626;23.200;2022-11-23T11:36:50;144999.72;;;23.00;39.45
1776;BME280;885;42.626;23.200;2022-11-23T11:39:24;131370.53;;;18.99;46.36
1776;BME280;885;42.626;23.200;2022-11-23T11:41:57;135302.41;;;19.92;46.51
1776;BME280;885;42.626;23.200;2022-11-23T11:44:26;132705.50;;;20.01;43.50
1776;BME280;885;42.626;23.200;2022-11-23T11:46:56;137184.78;;;21.68;40.84
1776;BME280;885;42.626;23.200;2022-11-23T11:49:29;136529.25;;;22.11;40.00
1776;BME280;885;42.626;23.200;2022-11-23T11:52:03;133021.22;;;21.50;40.12
1776;BME280;885;42.626;23.200;2022-11-23T11:54:36;125973.66;;;19.96;41.62
1776;BME280;885;42.626;23.200;2022-11-23T11:57:15;127992.59;;;20.71;40.67
1776;BME280;885;42.626;23.200;2022-11-23T11:59:46;129929.31;;;21.03;41.14
1776;BME280;885;42.626;23.200;2022-11-23T12:02:21;130016.06;;;21.45;40.19
1776;BME280;885;42.626;23.200;2022-11-23T12:04:56;120214.75;;;19.09;44.03
1776;BME280;885;42.626;23.200;2022-11-23T12:07:29;118622.25;;;18.53;46.71
1776;BME280;885;42.626;23.200;2022-11-23T12:10:03;117040.50;;;18.02;48.42
1776;BME280;885;42.626;23.200;2022-11-23T12:12:33;108746.81;;;15.75;56.38
1776;BME280;885;42.626;23.200;2022-11-23T12:15:04;110029.72;;;16.00;55.89
1776;BME280;885;42.626;23.200;2022-11-23T12:17:56;118092.13;;;17.69;51.73
1776;BME280;885;42.626;23.200;2022-11-23T12:20:36;119657.03;;;18.11;50.43
1776;BME280;885;42.626;23.200;2022-11-23T12:23:14;114271.25;;;17.07;52.77
1776;BME280;885;42.626;23.200;2022-11-23T12:25:49;106365.31;;;15.13;58.81
1776;BME280;885;42.626;23.200;2022-11-23T12:28:41;110431.78;;;16.06;55.93
1776;BME280;885;42.626;23.200;2022-11-23T12:31:17;102383.97;;;14.27;60.06
1776;BME280;885;42.626;23.200;2022-11-23T12:33:57;100591.16;;;13.52;64.27
1776;BME280;885;42.626;23.200;2022-11-23T12:36:41;99086.16;;;13.03;65.54
1776;BME280;885;42.626;23.200;2022-11-23T12:39:23;101587.97;;;13.45;66.00
1776;BME280;885;42.626;23.200;2022-11-23T12:41:55;102251.50;;;13.79;63.23
1776;BME280;885;42.626;23.200;2022-11-23T12:44:46;103751.91;;;14.22;62.14
1776;BME280;885;42.626;23.200;2022-11-23T12:47:22;99360.63;;;12.83;66.26
1776;BME280;885;42.626;23.200;2022-11-23T12:49:54;106342.84;;;14.70;61.41
1776;BME280;885;42.626;23.200;2022-11-23T12:52:36;99830.22;;;13.48;61.15
1776;BME280;885;42.626;23.200;2022-11-23T12:55:18;96769.19;;;12.48;64.10
1776;BME280;885;42.626;23.200;2022-11-23T12:57:52;97836.00;;;12.61;65.51
1776;BME280;885;42.626;23.200;2022-11-23T13:00:24;96888.69;;;12.20;66.71
1776;BME280;885;42.626;23.200;2022-11-23T13:03:30;105614.97;;;14.63;59.61
1776;BME280;885;42.626;23.200;2022-11-23T13:06:27;112343.75;;;16.16;55.23
1776;BME280;885;42.626;23.200;2022-11-23T13:09:33;111537.59;;;16.37;52.66
1776;BME280;885;42.626;23.200;2022-11-23T13:12:18;101697.59;;;14.11;58.92
1776;BME280;885;42.626;23.200;2022-11-23T13:14:58;99568.44;;;13.33;62.87
1776;BME280;885;42.626;23.200;2022-11-23T13:17:37;97757.50;;;12.62;65.64
1776;BME280;885;42.626;23.200;2022-11-23T13:20:25;97835.94;;;12.50;67.49
1776;BME280;885;42.626;23.200;2022-11-23T13:22:56;97917.00;;;12.47;67.81
1776;BME280;885;42.626;23.200;2022-11-23T13:25:26;96906.72;;;12.04;69.68